sensor_id;sensor_type;location;lat;lon;timestamp;P1;durP1;ratioP1;P2;durP2;ratioP2
72924;SDS011;61070;50.794;7.054;2023-05-31T00:00:51;14.30;;;8.40;;
72924;SDS011;61070;50.794;7.054;2023-05-31T00:03:16;18.30;;;7.80;;
72924;SDS011;61070;50.794;7.054;2023-05-31T00:05:42;15.30;;;7.75;;
72924;SDS011;61070;50.794;7.054;2023-05-31T00:08:07;15.52;;;8.65;;
72924;SDS011;61070;50.794;7.054;2023-05-31T00:10:32;16.23;;;8.25;;
72924;SDS011;61070;50.794;7.054;2023-05-31T00:12:57;18.63;;;8.35;;
72924;SDS011;61070;50.794;7.054;2023-05-31T00:15:23;14.57;;;7.82;;
72924;SDS011;61070;50.794;7.054;2023-05-31T00:17:48;16.60;;;8.55;;
72924;SDS011;61070;50.794;7.054;2023-05-31T00:20:13;15.43;;;7.97;;
72924;SDS011;61070;50.794;7.054;2023-05-31T00:22:38;14.07;;;8.80;;
72924;SDS011;61070;50.794;7.054;2023-05-31T00:25:04;14.90;;;8.10;;
72924;SDS011;61070;50.794;7.054;2023-05-31T00:27:30;18.90;;;9.05;;
72924;SDS011;61070;50.794;7.054;2023-05-31T00:29:55;21.05;;;9.32;;
72924;SDS011;61070;50.794;7.054;2023-05-31T00:32:20;12.82;;;8.40;;
72924;SDS011;61070;50.794;7.054;2023-05-31T00:34:45;21.75;;;10.20;;
72924;SDS011;61070;50.794;7.054;2023-05-31T00:37:11;15.43;;;9.00;;
72924;SDS011;61070;50.794;7.054;2023-05-31T00:39:36;15.43;;;9.02;;
72924;SDS011;61070;50.794;7.054;2023-05-31T00:42:01;14.15;;;8.05;;
72924;SDS011;61070;50.794;7.054;2023-05-31T00:44:27;12.75;;;8.77;;
72924;SDS011;61070;50.794;7.054;2023-05-31T00:46:52;18.58;;;8.48;;
72924;SDS011;61070;50.794;7.054;2023-05-31T00:49:18;17.98;;;8.30;;
72924;SDS011;61070;50.794;7.054;2023-05-31T00:51:44;17.45;;;9.23;;
72924;SDS011;61070;50.794;7.054;2023-05-31T00:54:10;15.30;;;8.63;;
72924;SDS011;61070;50.794;7.054;2023-05-31T00:56:36;12.52;;;7.88;;
72924;SDS011;61070;50.794;7.054;2023-05-31T00:59:02;19.98;;;8.52;;
72924;SDS011;61070;50.794;7.054;2023-05-31T01:01:27;15.75;;;8.30;;
72924;SDS011;61070;50.794;7.054;2023-05-31T01:03:58;13.10;;;8.38;;
72924;SDS011;61070;50.794;7.054;2023-05-31T01:06:24;17.30;;;8.48;;
72924;SDS011;61070;50.794;7.054;2023-05-31T01:08:49;15.40;;;8.18;;
72924;SDS011;61070;50.794;7.054;2023-05-31T01:11:18;16.85;;;8.82;;
72924;SDS011;61070;50.794;7.054;2023-05-31T01:14:13;19.60;;;9.07;;
72924;SDS011;61070;50.794;7.054;2023-05-31T01:16:47;16.50;;;9.02;;
72924;SDS011;61070;50.794;7.054;2023-05-31T01:19:20;17.45;;;8.70;;
72924;SDS011;61070;50.794;7.054;2023-05-31T01:22:19;16.42;;;9.05;;
72924;SDS011;61070;50.794;7.054;2023-05-31T01:27:39;16.73;;;8.50;;
72924;SDS011;61070;50.794;7.054;2023-05-31T01:30:07;21.73;;;9.40;;
72924;SDS011;61070;50.794;7.054;2023-05-31T01:32:34;19.90;;;9.32;;
72924;SDS011;61070;50.794;7.054;2023-05-31T01:35:01;18.58;;;9.65;;
72924;SDS011;61070;50.794;7.054;2023-05-31T01:37:26;19.58;;;8.95;;
72924;SDS011;61070;50.794;7.054;2023-05-31T01:39:51;19.00;;;9.48;;
72924;SDS011;61070;50.794;7.054;2023-05-31T01:42:17;25.58;;;11.68;;
72924;SDS011;61070;50.794;7.054;2023-05-31T01:44:44;17.35;;;9.82;;
72924;SDS011;61070;50.794;7.054;2023-05-31T01:47:10;20.30;;;8.77;;
72924;SDS011;61070;50.794;7.054;2023-05-31T01:49:36;19.10;;;9.07;;
72924;SDS011;61070;50.794;7.054;2023-05-31T01:52:03;17.35;;;9.38;;
72924;SDS011;61070;50.794;7.054;2023-05-31T01:54:31;19.45;;;8.55;;
72924;SDS011;61070;50.794;7.054;2023-05-31T01:56:56;15.27;;;8.63;;
72924;SDS011;61070;50.794;7.054;2023-05-31T01:59:23;13.15;;;7.57;;
72924;SDS011;61070;50.794;7.054;2023-05-31T02:01:49;18.48;;;9.32;;
72924;SDS011;61070;50.794;7.054;2023-05-31T02:04:17;18.77;;;9.32;;
72924;SDS011;61070;50.794;7.054;2023-05-31T02:06:43;12.88;;;8.15;;
72924;SDS011;61070;50.794;7.054;2023-05-31T02:09:09;20.60;;;9.15;;
72924;SDS011;61070;50.794;7.054;2023-05-31T02:11:34;17.70;;;8.48;;
72924;SDS011;61070;50.794;7.054;2023-05-31T02:13:59;17.77;;;9.30;;
72924;SDS011;61070;50.794;7.054;2023-05-31T02:16:25;16.42;;;7.70;;
72924;SDS011;61070;50.794;7.054;2023-05-31T02:18:50;14.57;;;8.70;;
72924;SDS011;61070;50.794;7.054;2023-05-31T02:21:16;16.98;;;8.23;;
72924;SDS011;61070;50.794;7.054;2023-05-31T02:23:41;16.02;;;8.18;;
72924;SDS011;61070;50.794;7.054;2023-05-31T02:26:07;16.33;;;7.72;;
72924;SDS011;61070;50.794;7.054;2023-05-31T02:28:33;17.80;;;8.70;;
72924;SDS011;61070;50.794;7.054;2023-05-31T02:30:58;15.70;;;8.50;;
72924;SDS011;61070;50.794;7.054;2023-05-31T02:33:25;16.45;;;8.38;;
72924;SDS011;61070;50.794;7.054;2023-05-31T02:35:51;15.55;;;8.40;;
72924;SDS011;61070;50.794;7.054;2023-05-31T02:38:18;14.18;;;8.15;;
72924;SDS011;61070;50.794;7.054;2023-05-31T02:40:44;14.73;;;7.82;;
72924;SDS011;61070;50.794;7.054;2023-05-31T02:43:10;15.35;;;9.32;;
72924;SDS011;61070;50.794;7.054;2023-05-31T02:45:35;16.92;;;8.65;;
72924;SDS011;61070;50.794;7.054;2023-05-31T02:48:00;17.17;;;8.30;;
72924;SDS011;61070;50.794;7.054;2023-05-31T02:50:30;16.90;;;7.38;;
72924;SDS011;61070;50.794;7.054;2023-05-31T02:52:55;16.45;;;8.02;;
72924;SDS011;61070;50.794;7.054;2023-05-31T02:55:21;18.30;;;7.82;;
72924;SDS011;61070;50.794;7.054;2023-05-31T02:57:46;14.70;;;7.63;;
72924;SDS011;61070;50.794;7.054;2023-05-31T03:00:11;14.27;;;7.97;;
72924;SDS011;61070;50.794;7.054;2023-05-31T03:02:40;16.05;;;7.85;;
72924;SDS011;61070;50.794;7.054;2023-05-31T03:05:06;18.90;;;8.40;;
72924;SDS011;61070;50.794;7.054;2023-05-31T03:07:34;14.00;;;7.68;;
72924;SDS011;61070;50.794;7.054;2023-05-31T03:09:59;16.10;;;8.90;;
72924;SDS011;61070;50.794;7.054;2023-05-31T03:12:25;15.75;;;8.13;;
72924;SDS011;61070;50.794;7.054;2023-05-31T03:14:50;20.83;;;8.43;;
72924;SDS011;61070;50.794;7.054;2023-05-31T03:17:15;16.92;;;8.85;;
72924;SDS011;61070;50.794;7.054;2023-05-31T03:19:41;14.85;;;8.05;;
72924;SDS011;61070;50.794;7.054;2023-05-31T03:22:06;18.92;;;8.50;;
72924;SDS011;61070;50.794;7.054;2023-05-31T03:24:31;16.23;;;8.20;;
72924;SDS011;61070;50.794;7.054;2023-05-31T03:26:56;14.13;;;8.50;;
72924;SDS011;61070;50.794;7.054;2023-05-31T03:29:22;19.92;;;8.50;;
72924;SDS011;61070;50.794;7.054;2023-05-31T03:31:47;17.67;;;9.02;;
72924;SDS011;61070;50.794;7.054;2023-05-31T03:34:12;22.67;;;8.63;;
72924;SDS011;61070;50.794;7.054;2023-05-31T03:36:38;15.00;;;8.38;;
72924;SDS011;61070;50.794;7.054;2023-05-31T03:39:03;20.70;;;9.02;;
72924;SDS011;61070;50.794;7.054;2023-05-31T03:41:28;17.35;;;8.75;;
72924;SDS011;61070;50.794;7.054;2023-05-31T03:43:54;17.60;;;8.80;;
72924;SDS011;61070;50.794;7.054;2023-05-31T03:46:19;15.82;;;8.43;;
72924;SDS011;61070;50.794;7.054;2023-05-31T03:48:45;15.60;;;7.95;;
72924;SDS011;61070;50.794;7.054;2023-05-31T03:51:10;14.07;;;8.48;;
72924;SDS011;61070;50.794;7.054;2023-05-31T03:53:35;16.27;;;7.95;;
72924;SDS011;61070;50.794;7.054;2023-05-31T03:56:01;17.88;;;7.85;;
72924;SDS011;61070;50.794;7.054;2023-05-31T03:58:26;18.08;;;8.23;;
72924;SDS011;61070;50.794;7.054;2023-05-31T04:00:51;12.38;;;7.43;;
72924;SDS011;61070;50.794;7.054;2023-05-31T04:03:17;16.38;;;7.85;;
72924;SDS011;61070;50.794;7.054;2023-05-31T04:05:42;17.92;;;8.30;;
72924;SDS011;61070;50.794;7.054;2023-05-31T04:08:08;17.10;;;8.82;;
72924;SDS011;61070;50.794;7.054;2023-05-31T04:10:33;13.13;;;7.72;;
72924;SDS011;61070;50.794;7.054;2023-05-31T04:12:59;13.80;;;7.97;;
72924;SDS011;61070;50.794;7.054;2023-05-31T04:15:24;21.25;;;10.48;;
72924;SDS011;61070;50.794;7.054;2023-05-31T04:17:50;13.38;;;7.13;;
72924;SDS011;61070;50.794;7.054;2023-05-31T04:20:16;12.18;;;6.55;;
72924;SDS011;61070;50.794;7.054;2023-05-31T04:22:42;20.00;;;7.97;;
72924;SDS011;61070;50.794;7.054;2023-05-31T04:25:07;17.92;;;8.48;;
72924;SDS011;61070;50.794;7.054;2023-05-31T04:27:34;17.45;;;8.40;;
72924;SDS011;61070;50.794;7.054;2023-05-31T04:30:03;15.38;;;8.05;;
72924;SDS011;61070;50.794;7.054;2023-05-31T04:32:30;17.75;;;9.05;;
72924;SDS011;61070;50.794;7.054;2023-05-31T04:34:59;16.55;;;8.05;;
72924;SDS011;61070;50.794;7.054;2023-05-31T04:37:31;21.10;;;8.60;;
72924;SDS011;61070;50.794;7.054;2023-05-31T04:39:58;15.63;;;8.90;;
72924;SDS011;61070;50.794;7.054;2023-05-31T04:42:24;14.70;;;8.68;;
72924;SDS011;61070;50.794;7.054;2023-05-31T04:44:51;16.00;;;9.05;;
72924;SDS011;61070;50.794;7.054;2023-05-31T04:47:22;18.20;;;8.82;;
72924;SDS011;61070;50.794;7.054;2023-05-31T04:49:48;18.30;;;8.48;;
72924;SDS011;61070;50.794;7.054;2023-05-31T04:52:13;15.85;;;8.35;;
72924;SDS011;61070;50.794;7.054;2023-05-31T04:54:39;16.00;;;7.93;;
72924;SDS011;61070;50.794;7.054;2023-05-31T04:57:05;16.92;;;9.10;;
72924;SDS011;61070;50.794;7.054;2023-05-31T04:59:31;18.15;;;9.75;;
72924;SDS011;61070;50.794;7.054;2023-05-31T05:01:57;18.20;;;9.15;;
72924;SDS011;61070;50.794;7.054;2023-05-31T05:04:22;16.42;;;8.55;;
72924;SDS011;61070;50.794;7.054;2023-05-31T05:06:48;20.40;;;9.18;;
72924;SDS011;61070;50.794;7.054;2023-05-31T05:09:13;21.55;;;9.52;;
72924;SDS011;61070;50.794;7.054;2023-05-31T05:11:38;23.67;;;8.68;;
72924;SDS011;61070;50.794;7.054;2023-05-31T05:14:04;23.20;;;9.52;;
72924;SDS011;61070;50.794;7.054;2023-05-31T05:16:29;15.23;;;9.05;;
72924;SDS011;61070;50.794;7.054;2023-05-31T05:18:55;21.73;;;9.30;;
72924;SDS011;61070;50.794;7.054;2023-05-31T05:21:21;14.85;;;8.80;;
72924;SDS011;61070;50.794;7.054;2023-05-31T05:23:46;21.08;;;9.57;;
72924;SDS011;61070;50.794;7.054;2023-05-31T05:26:12;13.75;;;8.25;;
72924;SDS011;61070;50.794;7.054;2023-05-31T05:28:37;13.75;;;6.70;;
72924;SDS011;61070;50.794;7.054;2023-05-31T05:31:03;15.60;;;6.93;;
72924;SDS011;61070;50.794;7.054;2023-05-31T05:33:28;14.93;;;8.05;;
72924;SDS011;61070;50.794;7.054;2023-05-31T05:35:54;18.58;;;7.28;;
72924;SDS011;61070;50.794;7.054;2023-05-31T05:38:20;13.80;;;6.90;;
72924;SDS011;61070;50.794;7.054;2023-05-31T05:40:45;16.17;;;6.35;;
72924;SDS011;61070;50.794;7.054;2023-05-31T05:43:11;18.88;;;7.50;;
72924;SDS011;61070;50.794;7.054;2023-05-31T05:45:36;17.88;;;6.55;;
72924;SDS011;61070;50.794;7.054;2023-05-31T05:48:01;10.82;;;6.70;;
72924;SDS011;61070;50.794;7.054;2023-05-31T05:50:27;14.70;;;6.72;;
72924;SDS011;61070;50.794;7.054;2023-05-31T05:52:52;12.13;;;5.97;;
72924;SDS011;61070;50.794;7.054;2023-05-31T05:55:17;10.13;;;6.07;;
72924;SDS011;61070;50.794;7.054;2023-05-31T05:57:44;13.60;;;6.15;;
72924;SDS011;61070;50.794;7.054;2023-05-31T06:00:09;12.73;;;5.85;;
72924;SDS011;61070;50.794;7.054;2023-05-31T06:02:39;13.60;;;6.53;;
72924;SDS011;61070;50.794;7.054;2023-05-31T06:05:12;15.50;;;7.45;;
72924;SDS011;61070;50.794;7.054;2023-05-31T06:07:37;12.90;;;6.40;;
72924;SDS011;61070;50.794;7.054;2023-05-31T06:10:02;14.10;;;6.63;;
72924;SDS011;61070;50.794;7.054;2023-05-31T06:12:28;12.63;;;6.40;;
72924;SDS011;61070;50.794;7.054;2023-05-31T06:14:55;14.80;;;6.03;;
72924;SDS011;61070;50.794;7.054;2023-05-31T06:17:20;21.67;;;6.30;;
72924;SDS011;61070;50.794;7.054;2023-05-31T06:19:46;16.30;;;6.53;;
72924;SDS011;61070;50.794;7.054;2023-05-31T06:22:11;18.40;;;5.97;;
72924;SDS011;61070;50.794;7.054;2023-05-31T06:24:36;14.88;;;6.57;;
72924;SDS011;61070;50.794;7.054;2023-05-31T06:27:01;14.65;;;6.60;;
72924;SDS011;61070;50.794;7.054;2023-05-31T06:29:28;16.90;;;5.80;;
72924;SDS011;61070;50.794;7.054;2023-05-31T06:31:53;13.02;;;5.68;;
72924;SDS011;61070;50.794;7.054;2023-05-31T06:34:18;22.20;;;6.35;;
72924;SDS011;61070;50.794;7.054;2023-05-31T06:36:44;13.38;;;5.50;;
72924;SDS011;61070;50.794;7.054;2023-05-31T06:39:09;13.07;;;5.40;;
72924;SDS011;61070;50.794;7.054;2023-05-31T06:41:35;14.38;;;4.88;;
72924;SDS011;61070;50.794;7.054;2023-05-31T06:44:01;11.63;;;5.38;;
72924;SDS011;61070;50.794;7.054;2023-05-31T06:46:27;12.95;;;5.13;;
72924;SDS011;61070;50.794;7.054;2023-05-31T06:48:52;16.65;;;6.40;;
72924;SDS011;61070;50.794;7.054;2023-05-31T06:51:18;17.10;;;5.97;;
72924;SDS011;61070;50.794;7.054;2023-05-31T06:53:45;14.77;;;6.03;;
72924;SDS011;61070;50.794;7.054;2023-05-31T06:56:11;12.75;;;5.45;;
72924;SDS011;61070;50.794;7.054;2023-05-31T06:58:36;14.60;;;6.57;;
72924;SDS011;61070;50.794;7.054;2023-05-31T07:01:01;15.15;;;6.55;;
72924;SDS011;61070;50.794;7.054;2023-05-31T07:03:27;12.73;;;5.35;;
72924;SDS011;61070;50.794;7.054;2023-05-31T07:05:52;10.70;;;5.28;;
72924;SDS011;61070;50.794;7.054;2023-05-31T07:08:17;18.80;;;5.97;;
72924;SDS011;61070;50.794;7.054;2023-05-31T07:10:43;12.02;;;5.35;;
72924;SDS011;61070;50.794;7.054;2023-05-31T07:13:10;15.82;;;6.07;;
72924;SDS011;61070;50.794;7.054;2023-05-31T07:15:35;12.57;;;5.38;;
72924;SDS011;61070;50.794;7.054;2023-05-31T07:18:01;15.25;;;5.75;;
72924;SDS011;61070;50.794;7.054;2023-05-31T07:20:26;12.52;;;5.35;;
72924;SDS011;61070;50.794;7.054;2023-05-31T07:22:51;14.30;;;5.70;;
72924;SDS011;61070;50.794;7.054;2023-05-31T07:25:17;15.88;;;6.35;;
72924;SDS011;61070;50.794;7.054;2023-05-31T07:27:42;11.63;;;5.63;;
72924;SDS011;61070;50.794;7.054;2023-05-31T07:30:07;9.65;;;5.05;;
72924;SDS011;61070;50.794;7.054;2023-05-31T07:32:33;11.25;;;5.93;;
72924;SDS011;61070;50.794;7.054;2023-05-31T07:34:59;16.67;;;5.45;;
72924;SDS011;61070;50.794;7.054;2023-05-31T07:37:24;18.10;;;5.47;;
72924;SDS011;61070;50.794;7.054;2023-05-31T07:39:49;13.57;;;5.55;;
72924;SDS011;61070;50.794;7.054;2023-05-31T07:42:15;12.55;;;5.78;;
72924;SDS011;61070;50.794;7.054;2023-05-31T07:44:40;15.90;;;5.75;;
72924;SDS011;61070;50.794;7.054;2023-05-31T07:47:05;10.40;;;5.32;;
72924;SDS011;61070;50.794;7.054;2023-05-31T07:49:31;10.90;;;5.30;;
72924;SDS011;61070;50.794;7.054;2023-05-31T07:51:56;11.52;;;5.95;;
72924;SDS011;61070;50.794;7.054;2023-05-31T07:54:22;12.98;;;6.28;;
72924;SDS011;61070;50.794;7.054;2023-05-31T07:56:47;11.30;;;5.30;;
72924;SDS011;61070;50.794;7.054;2023-05-31T07:59:12;13.23;;;5.45;;
72924;SDS011;61070;50.794;7.054;2023-05-31T08:01:38;10.07;;;4.40;;
72924;SDS011;61070;50.794;7.054;2023-05-31T08:04:05;14.23;;;4.70;;
72924;SDS011;61070;50.794;7.054;2023-05-31T08:06:31;16.30;;;4.70;;
72924;SDS011;61070;50.794;7.054;2023-05-31T08:08:57;10.52;;;4.22;;
72924;SDS011;61070;50.794;7.054;2023-05-31T08:11:23;13.32;;;4.57;;
72924;SDS011;61070;50.794;7.054;2023-05-31T08:13:48;7.57;;;3.85;;
72924;SDS011;61070;50.794;7.054;2023-05-31T08:16:14;18.05;;;4.40;;
72924;SDS011;61070;50.794;7.054;2023-05-31T08:18:40;8.85;;;4.35;;
72924;SDS011;61070;50.794;7.054;2023-05-31T08:21:05;8.88;;;4.60;;
72924;SDS011;61070;50.794;7.054;2023-05-31T08:23:30;10.45;;;4.13;;
72924;SDS011;61070;50.794;7.054;2023-05-31T08:25:56;12.85;;;4.20;;
72924;SDS011;61070;50.794;7.054;2023-05-31T08:28:21;9.98;;;3.85;;
72924;SDS011;61070;50.794;7.054;2023-05-31T08:30:46;15.77;;;3.75;;
72924;SDS011;61070;50.794;7.054;2023-05-31T08:33:13;12.32;;;3.78;;
72924;SDS011;61070;50.794;7.054;2023-05-31T08:35:38;14.82;;;3.58;;
72924;SDS011;61070;50.794;7.054;2023-05-31T08:38:05;7.82;;;3.53;;
72924;SDS011;61070;50.794;7.054;2023-05-31T08:40:30;15.07;;;4.22;;
72924;SDS011;61070;50.794;7.054;2023-05-31T08:43:00;9.95;;;3.95;;
72924;SDS011;61070;50.794;7.054;2023-05-31T08:45:28;11.23;;;3.10;;
72924;SDS011;61070;50.794;7.054;2023-05-31T08:48:00;8.05;;;3.30;;
72924;SDS011;61070;50.794;7.054;2023-05-31T08:50:30;12.00;;;3.30;;
72924;SDS011;61070;50.794;7.054;2023-05-31T08:52:57;10.35;;;3.33;;
72924;SDS011;61070;50.794;7.054;2023-05-31T08:55:23;9.05;;;2.92;;
72924;SDS011;61070;50.794;7.054;2023-05-31T08:57:50;12.45;;;3.45;;
72924;SDS011;61070;50.794;7.054;2023-05-31T09:00:17;15.85;;;3.53;;
72924;SDS011;61070;50.794;7.054;2023-05-31T09:02:44;11.82;;;3.50;;
72924;SDS011;61070;50.794;7.054;2023-05-31T09:05:11;9.48;;;3.17;;
72924;SDS011;61070;50.794;7.054;2023-05-31T09:07:38;8.90;;;2.75;;
72924;SDS011;61070;50.794;7.054;2023-05-31T09:10:04;8.48;;;3.05;;
72924;SDS011;61070;50.794;7.054;2023-05-31T09:12:31;12.40;;;3.85;;
72924;SDS011;61070;50.794;7.054;2023-05-31T09:14:57;10.00;;;2.83;;
72924;SDS011;61070;50.794;7.054;2023-05-31T09:17:22;9.63;;;2.85;;
72924;SDS011;61070;50.794;7.054;2023-05-31T09:19:52;10.18;;;3.80;;
72924;SDS011;61070;50.794;7.054;2023-05-31T09:22:18;8.88;;;3.25;;
72924;SDS011;61070;50.794;7.054;2023-05-31T09:24:49;5.57;;;2.70;;
72924;SDS011;61070;50.794;7.054;2023-05-31T09:27:19;7.80;;;3.17;;
72924;SDS011;61070;50.794;7.054;2023-05-31T09:29:49;6.57;;;2.28;;
72924;SDS011;61070;50.794;7.054;2023-05-31T09:32:16;7.10;;;2.95;;
72924;SDS011;61070;50.794;7.054;2023-05-31T09:34:42;5.05;;;2.28;;
72924;SDS011;61070;50.794;7.054;2023-05-31T09:37:07;6.40;;;2.13;;
72924;SDS011;61070;50.794;7.054;2023-05-31T09:39:32;6.40;;;2.20;;
72924;SDS011;61070;50.794;7.054;2023-05-31T09:41:58;7.30;;;2.80;;
72924;SDS011;61070;50.794;7.054;2023-05-31T09:44:27;13.40;;;2.90;;
72924;SDS011;61070;50.794;7.054;2023-05-31T09:46:53;5.10;;;2.65;;
72924;SDS011;61070;50.794;7.054;2023-05-31T09:49:18;7.05;;;2.13;;
72924;SDS011;61070;50.794;7.054;2023-05-31T09:51:50;9.57;;;2.47;;
72924;SDS011;61070;50.794;7.054;2023-05-31T09:54:17;5.43;;;2.15;;
72924;SDS011;61070;50.794;7.054;2023-05-31T09:56:47;7.18;;;2.30;;
72924;SDS011;61070;50.794;7.054;2023-05-31T09:59:12;3.65;;;2.03;;
72924;SDS011;61070;50.794;7.054;2023-05-31T10:01:40;8.02;;;3.20;;
72924;SDS011;61070;50.794;7.054;2023-05-31T10:04:05;6.95;;;2.38;;
72924;SDS011;61070;50.794;7.054;2023-05-31T10:06:31;6.75;;;2.35;;
72924;SDS011;61070;50.794;7.054;2023-05-31T10:09:00;6.55;;;2.40;;
72924;SDS011;61070;50.794;7.054;2023-05-31T10:11:28;7.43;;;2.33;;
72924;SDS011;61070;50.794;7.054;2023-05-31T10:13:59;9.30;;;2.17;;
72924;SDS011;61070;50.794;7.054;2023-05-31T10:16:28;3.85;;;2.22;;
72924;SDS011;61070;50.794;7.054;2023-05-31T10:18:58;8.48;;;2.25;;
72924;SDS011;61070;50.794;7.054;2023-05-31T10:21:27;10.93;;;2.22;;
72924;SDS011;61070;50.794;7.054;2023-05-31T10:26:34;9.50;;;2.35;;
72924;SDS011;61070;50.794;7.054;2023-05-31T10:29:05;4.97;;;1.92;;
72924;SDS011;61070;50.794;7.054;2023-05-31T10:31:36;6.43;;;2.10;;
72924;SDS011;61070;50.794;7.054;2023-05-31T10:36:48;5.38;;;2.10;;
72924;SDS011;61070;50.794;7.054;2023-05-31T10:39:31;6.75;;;3.40;;
72924;SDS011;61070;50.794;7.054;2023-05-31T10:42:05;3.70;;;2.00;;
72924;SDS011;61070;50.794;7.054;2023-05-31T10:44:58;7.57;;;2.30;;
72924;SDS011;61070;50.794;7.054;2023-05-31T10:47:21;6.38;;;1.88;;
72924;SDS011;61070;50.794;7.054;2023-05-31T10:49:52;3.42;;;1.88;;
72924;SDS011;61070;50.794;7.054;2023-05-31T10:52:20;7.82;;;2.65;;
72924;SDS011;61070;50.794;7.054;2023-05-31T10:54:46;6.55;;;2.25;;
72924;SDS011;61070;50.794;7.054;2023-05-31T10:57:11;5.50;;;1.60;;
72924;SDS011;61070;50.794;7.054;2023-05-31T10:59:41;3.22;;;1.70;;
72924;SDS011;61070;50.794;7.054;2023-05-31T11:02:09;8.48;;;2.35;;
72924;SDS011;61070;50.794;7.054;2023-05-31T11:04:35;7.63;;;2.15;;
72924;SDS011;61070;50.794;7.054;2023-05-31T11:07:09;6.70;;;1.90;;
72924;SDS011;61070;50.794;7.054;2023-05-31T11:09:37;3.15;;;1.55;;
72924;SDS011;61070;50.794;7.054;2023-05-31T11:12:04;3.33;;;1.67;;
72924;SDS011;61070;50.794;7.054;2023-05-31T11:14:30;6.65;;;1.65;;
72924;SDS011;61070;50.794;7.054;2023-05-31T11:21:59;7.22;;;1.70;;
72924;SDS011;61070;50.794;7.054;2023-05-31T11:24:51;5.72;;;2.25;;
72924;SDS011;61070;50.794;7.054;2023-05-31T11:27:21;7.70;;;2.53;;
72924;SDS011;61070;50.794;7.054;2023-05-31T11:32:15;4.60;;;2.17;;
72924;SDS011;61070;50.794;7.054;2023-05-31T11:34:57;5.18;;;1.70;;
72924;SDS011;61070;50.794;7.054;2023-05-31T11:37:35;4.15;;;1.83;;
72924;SDS011;61070;50.794;7.054;2023-05-31T11:40:05;3.13;;;1.80;;
72924;SDS011;61070;50.794;7.054;2023-05-31T11:42:34;4.78;;;1.92;;
72924;SDS011;61070;50.794;7.054;2023-05-31T11:45:04;4.13;;;2.03;;
72924;SDS011;61070;50.794;7.054;2023-05-31T11:47:39;10.05;;;2.05;;
72924;SDS011;61070;50.794;7.054;2023-05-31T11:50:10;4.00;;;1.92;;
72924;SDS011;61070;50.794;7.054;2023-05-31T11:52:41;5.28;;;2.22;;
72924;SDS011;61070;50.794;7.054;2023-05-31T11:55:06;5.15;;;1.83;;
72924;SDS011;61070;50.794;7.054;2023-05-31T12:00:11;7.00;;;2.00;;
72924;SDS011;61070;50.794;7.054;2023-05-31T12:02:40;4.32;;;1.90;;
72924;SDS011;61070;50.794;7.054;2023-05-31T12:05:06;3.13;;;1.63;;
72924;SDS011;61070;50.794;7.054;2023-05-31T12:10:04;6.25;;;1.60;;
72924;SDS011;61070;50.794;7.054;2023-05-31T12:12:30;7.25;;;2.05;;
72924;SDS011;61070;50.794;7.054;2023-05-31T12:14:55;4.60;;;1.80;;
72924;SDS011;61070;50.794;7.054;2023-05-31T12:17:20;10.07;;;1.80;;
72924;SDS011;61070;50.794;7.054;2023-05-31T12:19:49;3.63;;;1.90;;
72924;SDS011;61070;50.794;7.054;2023-05-31T12:22:15;7.75;;;1.85;;
72924;SDS011;61070;50.794;7.054;2023-05-31T12:24:50;3.92;;;1.80;;
72924;SDS011;61070;50.794;7.054;2023-05-31T12:27:16;6.07;;;2.25;;
72924;SDS011;61070;50.794;7.054;2023-05-31T12:29:43;3.42;;;1.58;;
72924;SDS011;61070;50.794;7.054;2023-05-31T12:32:08;8.07;;;2.37;;
72924;SDS011;61070;50.794;7.054;2023-05-31T12:34:34;10.55;;;2.22;;
72924;SDS011;61070;50.794;7.054;2023-05-31T12:37:05;6.90;;;2.50;;
72924;SDS011;61070;50.794;7.054;2023-05-31T12:39:31;5.93;;;2.30;;
72924;SDS011;61070;50.794;7.054;2023-05-31T12:41:57;5.35;;;1.98;;
72924;SDS011;61070;50.794;7.054;2023-05-31T12:44:23;4.65;;;1.85;;
72924;SDS011;61070;50.794;7.054;2023-05-31T12:46:50;6.75;;;2.00;;
72924;SDS011;61070;50.794;7.054;2023-05-31T12:49:20;4.85;;;2.22;;
72924;SDS011;61070;50.794;7.054;2023-05-31T12:54:20;7.90;;;1.87;;
72924;SDS011;61070;50.794;7.054;2023-05-31T12:56:45;4.75;;;2.40;;
72924;SDS011;61070;50.794;7.054;2023-05-31T12:59:11;6.05;;;2.10;;
72924;SDS011;61070;50.794;7.054;2023-05-31T13:01:36;5.88;;;1.95;;
72924;SDS011;61070;50.794;7.054;2023-05-31T13:04:03;4.70;;;1.95;;
72924;SDS011;61070;50.794;7.054;2023-05-31T13:06:28;4.68;;;2.05;;
72924;SDS011;61070;50.794;7.054;2023-05-31T13:08:54;5.72;;;2.10;;
72924;SDS011;61070;50.794;7.054;2023-05-31T13:11:19;6.93;;;1.97;;
72924;SDS011;61070;50.794;7.054;2023-05-31T13:13:46;7.85;;;2.30;;
72924;SDS011;61070;50.794;7.054;2023-05-31T13:16:11;5.43;;;2.05;;
72924;SDS011;61070;50.794;7.054;2023-05-31T13:18:37;5.53;;;2.13;;
72924;SDS011;61070;50.794;7.054;2023-05-31T13:21:02;6.00;;;2.13;;
72924;SDS011;61070;50.794;7.054;2023-05-31T13:23:27;4.43;;;1.83;;
72924;SDS011;61070;50.794;7.054;2023-05-31T13:25:53;3.33;;;1.73;;
72924;SDS011;61070;50.794;7.054;2023-05-31T13:28:18;6.20;;;1.87;;
72924;SDS011;61070;50.794;7.054;2023-05-31T13:30:44;4.00;;;1.85;;
72924;SDS011;61070;50.794;7.054;2023-05-31T13:33:09;8.55;;;2.15;;
72924;SDS011;61070;50.794;7.054;2023-05-31T13:35:34;5.43;;;1.73;;
72924;SDS011;61070;50.794;7.054;2023-05-31T13:38:01;5.80;;;1.92;;
72924;SDS011;61070;50.794;7.054;2023-05-31T13:40:27;9.57;;;1.92;;
72924;SDS011;61070;50.794;7.054;2023-05-31T13:42:53;4.05;;;1.80;;
72924;SDS011;61070;50.794;7.054;2023-05-31T13:45:18;3.05;;;1.83;;
72924;SDS011;61070;50.794;7.054;2023-05-31T13:47:43;4.70;;;1.93;;
72924;SDS011;61070;50.794;7.054;2023-05-31T13:50:09;9.03;;;2.10;;
72924;SDS011;61070;50.794;7.054;2023-05-31T13:52:34;3.47;;;1.80;;
72924;SDS011;61070;50.794;7.054;2023-05-31T13:55:00;6.07;;;2.60;;
72924;SDS011;61070;50.794;7.054;2023-05-31T13:57:26;9.98;;;2.00;;
72924;SDS011;61070;50.794;7.054;2023-05-31T13:59:51;3.25;;;1.83;;
72924;SDS011;61070;50.794;7.054;2023-05-31T14:02:16;8.25;;;2.28;;
72924;SDS011;61070;50.794;7.054;2023-05-31T14:04:42;3.47;;;1.80;;
72924;SDS011;61070;50.794;7.054;2023-05-31T14:07:07;6.47;;;2.10;;
72924;SDS011;61070;50.794;7.054;2023-05-31T14:09:32;4.07;;;2.03;;
72924;SDS011;61070;50.794;7.054;2023-05-31T14:11:58;7.25;;;2.28;;
72924;SDS011;61070;50.794;7.054;2023-05-31T14:14:23;4.20;;;1.80;;
72924;SDS011;61070;50.794;7.054;2023-05-31T14:16:49;4.03;;;1.83;;
72924;SDS011;61070;50.794;7.054;2023-05-31T14:19:15;6.88;;;2.13;;
72924;SDS011;61070;50.794;7.054;2023-05-31T14:21:40;5.32;;;1.75;;
72924;SDS011;61070;50.794;7.054;2023-05-31T14:24:06;5.28;;;1.88;;
72924;SDS011;61070;50.794;7.054;2023-05-31T14:26:32;3.67;;;1.85;;
72924;SDS011;61070;50.794;7.054;2023-05-31T14:28:57;8.07;;;1.88;;
72924;SDS011;61070;50.794;7.054;2023-05-31T14:31:22;3.75;;;2.05;;
72924;SDS011;61070;50.794;7.054;2023-05-31T14:33:48;4.40;;;1.92;;
72924;SDS011;61070;50.794;7.054;2023-05-31T14:36:13;6.57;;;2.27;;
72924;SDS011;61070;50.794;7.054;2023-05-31T14:38:38;4.43;;;2.00;;
72924;SDS011;61070;50.794;7.054;2023-05-31T14:41:03;8.03;;;1.80;;
72924;SDS011;61070;50.794;7.054;2023-05-31T14:43:29;5.53;;;2.10;;
72924;SDS011;61070;50.794;7.054;2023-05-31T14:45:54;4.33;;;2.33;;
72924;SDS011;61070;50.794;7.054;2023-05-31T14:48:19;8.90;;;1.92;;
72924;SDS011;61070;50.794;7.054;2023-05-31T14:50:44;3.20;;;2.03;;
72924;SDS011;61070;50.794;7.054;2023-05-31T14:53:10;7.33;;;2.03;;
72924;SDS011;61070;50.794;7.054;2023-05-31T14:55:39;5.63;;;1.90;;
72924;SDS011;61070;50.794;7.054;2023-05-31T14:58:05;4.53;;;2.10;;